Time;durP1;ratioP1;P1;durP2;ratioP2;P2;SDS_P1;SDS_P2;PMS_P1;PMS_P2;Temp;Humidity;BMP_temperature;BMP_pressure;BME280_temperature;BME280_humidity;BME280_pressure;Samples;Min_cycle;Max_cycle;Signal;HPM_P1;HPM_P2
2022/12/13 00:02:02;;;;;;;34.33;16.87;;;;;;;-6.42;100.00;97578.53;5131921;28;20205;-79
2022/12/13 00:04:28;;;;;;;36.00;17.97;;;;;;;-6.41;100.00;97569.94;5131850;28;20720;-79
2022/12/13 00:06:55;;;;;;;31.60;17.87;;;;;;;-6.31;100.00;97573.25;5131809;28;20225;-79
2022/12/13 00:09:21;;;;;;;31.93;17.53;;;;;;;-6.38;100.00;97564.78;5131785;28;20213;-79
2022/12/13 00:11:49;;;;;;;30.00;17.47;;;;;;;-6.32;100.00;97567.28;5131764;28;20209;-79
2022/12/13 00:14:16;;;;;;;33.77;17.77;;;;;;;-6.34;100.00;97568.16;5131668;28;20237;-79
2022/12/13 00:16:47;;;;;;;38.43;19.10;;;;;;;-6.32;100.00;97564.72;5131749;28;20201;-79
2022/12/13 00:19:14;;;;;;;30.60;17.53;;;;;;;-6.31;100.00;97571.53;5131379;28;20209;-79
2022/12/13 00:21:40;;;;;;;36.60;18.83;;;;;;;-6.25;100.00;97562.88;5131639;28;20687;-78
2022/12/13 00:24:07;;;;;;;32.80;17.10;;;;;;;-6.17;100.00;97558.53;5131707;27;20237;-77
2022/12/13 00:26:34;;;;;;;28.57;16.70;;;;;;;-6.23;100.00;97553.47;5135278;27;20233;-79
2022/12/13 00:29:02;;;;;;;32.93;17.70;;;;;;;-6.27;100.00;97554.34;5135311;27;20209;-79
2022/12/13 00:31:30;;;;;;;32.10;17.63;;;;;;;-6.28;100.00;97557.81;5135610;27;20201;-79
2022/12/13 00:33:59;;;;;;;31.73;17.77;;;;;;;-6.38;100.00;97553.63;5135539;27;20240;-78
2022/12/13 00:36:25;;;;;;;33.93;17.40;;;;;;;-6.44;100.00;97570.00;5135581;27;20211;-78
2022/12/13 00:39:00;;;;;;;30.23;17.00;;;;;;;-6.53;100.00;97566.69;5135113;27;20205;-80
2022/12/13 00:41:29;;;;;;;32.13;16.77;;;;;;;-6.62;100.00;97564.22;5135477;27;20703;-79
2022/12/13 00:43:55;;;;;;;31.93;16.90;;;;;;;-6.68;100.00;97559.13;5135293;27;20777;-79
2022/12/13 00:46:22;;;;;;;29.07;15.70;;;;;;;-6.70;100.00;97555.75;5135182;27;20251;-78
2022/12/13 00:48:50;;;;;;;36.00;20.25;;;;;;;-6.72;100.00;97544.66;5134794;27;20812;-88
2022/12/13 00:51:19;;;;;;;30.67;17.67;;;;;;;-6.66;100.00;97547.16;5135276;27;20683;-89
2022/12/13 00:53:46;;;;;;;30.83;17.30;;;;;;;-6.63;100.00;97544.53;5135454;27;20250;-84
2022/12/13 00:56:14;;;;;;;34.47;17.60;;;;;;;-6.64;100.00;97545.41;5135283;27;20202;-82
2022/12/13 00:58:41;;;;;;;33.90;19.00;;;;;;;-6.67;100.00;97540.28;5135133;27;20228;-82
2022/12/13 01:01:11;;;;;;;28.77;16.90;;;;;;;-6.66;100.00;97542.00;5134799;27;20209;-82
2022/12/13 01:03:38;;;;;;;29.87;16.23;;;;;;;-6.74;100.00;97544.66;5135240;27;20225;-82
2022/12/13 01:06:09;;;;;;;31.27;17.10;;;;;;;-6.86;100.00;97537.09;5135086;27;20601;-83
2022/12/13 01:08:37;;;;;;;32.37;17.50;;;;;;;-6.93;100.00;97529.47;5135151;27;20216;-83
2022/12/13 01:11:04;;;;;;;33.33;18.13;;;;;;;-6.88;100.00;97525.13;5134781;27;20753;-82
2022/12/13 01:13:31;;;;;;;29.53;16.40;;;;;;;-6.83;100.00;97525.94;5134614;27;20245;-83
2022/12/13 01:15:57;;;;;;;31.37;17.43;;;;;;;-6.83;100.00;97528.50;5134871;27;20201;-82
2022/12/13 01:18:24;;;;;;;31.80;16.47;;;;;;;-6.97;100.00;97528.66;5134760;27;20692;-83
2022/12/13 01:20:58;;;;;;;30.97;17.00;;;;;;;-7.05;100.00;97523.63;5134592;27;20205;-82
2022/12/13 01:23:24;;;;;;;31.00;15.63;;;;;;;-7.08;100.00;97528.78;5134663;27;20601;-82
2022/12/13 01:25:52;;;;;;;30.80;16.63;;;;;;;-7.12;100.00;97534.81;5134511;27;20229;-82
2022/12/13 01:28:19;;;;;;;32.63;18.03;;;;;;;-7.15;100.00;97530.56;5134743;27;20217;-82
2022/12/13 01:30:54;;;;;;;32.20;16.37;;;;;;;-7.17;100.00;97534.00;5134221;27;20676;-82
2022/12/13 01:33:20;;;;;;;33.40;16.40;;;;;;;-7.20;100.00;97527.19;5134453;27;20316;-83
2022/12/13 01:35:47;;;;;;;36.27;18.10;;;;;;;-7.16;100.00;97528.84;5134343;27;20211;-82
2022/12/13 01:38:13;;;;;;;34.70;17.93;;;;;;;-7.14;100.00;97532.25;5134453;27;20217;-82
2022/12/13 01:40:43;;;;;;;30.10;17.40;;;;;;;-7.12;100.00;97525.38;5134601;27;20205;-82
2022/12/13 01:43:13;;;;;;;30.23;17.77;;;;;;;-7.08;100.00;97527.06;5134484;27;20564;-82
2022/12/13 01:45:40;;;;;;;33.77;16.93;;;;;;;-7.01;100.00;97518.44;5134299;27;20668;-82
2022/12/13 01:48:11;;;;;;;31.40;16.17;;;;;;;-7.01;100.00;97518.44;5134278;27;20691;-82
2022/12/13 01:50:42;;;;;;;31.33;17.30;;;;;;;-6.92;100.00;97519.19;5133961;27;20695;-80
2022/12/13 01:53:11;;;;;;;32.87;17.83;;;;;;;-6.82;100.00;97522.50;5134326;27;20225;-83
2022/12/13 01:55:39;;;;;;;30.10;16.70;;;;;;;-6.88;100.00;97525.13;5134285;27;20205;-82
2022/12/13 01:58:06;;;;;;;34.53;17.93;;;;;;;-6.92;100.00;97526.03;5134206;27;20205;-83
2022/12/13 02:00:35;;;;;;;34.37;17.87;;;;;;;-6.91;100.00;97518.31;5133663;27;20665;-83
2022/12/13 02:03:03;;;;;;;28.50;16.77;;;;;;;-6.99;100.00;97516.69;5133886;27;20221;-83
2022/12/13 02:05:34;;;;;;;31.13;16.07;;;;;;;-7.04;100.00;97512.47;5133633;27;20700;-83
2022/12/13 02:08:02;;;;;;;34.87;17.07;;;;;;;-7.04;100.00;97513.31;5134104;27;20210;-82
2022/12/13 02:10:29;;;;;;;32.97;16.57;;;;;;;-7.09;100.00;97515.09;5133759;27;20213;-82
2022/12/13 02:12:57;;;;;;;30.43;16.73;;;;;;;-7.09;100.00;97509.97;5133896;27;20236;-82
2022/12/13 02:15:26;;;;;;;32.60;16.37;;;;;;;-7.15;100.00;97510.03;5133659;27;20228;-82
2022/12/13 02:18:12;;;;;;;36.03;17.47;;;;;;;-7.14;100.00;97501.47;5133457;27;20208;-82
2022/12/13 02:21:21;;;;;;;33.30;17.47;;;;;;;-7.08;100.00;97496.25;5133246;27;20204;-82
2022/12/13 02:24:29;;;;;;;32.67;16.83;;;;;;;-7.06;100.00;97498.81;5133511;27;20229;-82
2022/12/13 02:27:03;;;;;;;29.93;17.17;;;;;;;-7.04;100.00;97495.34;5130100;27;20236;-82
2022/12/13 02:30:19;;;;;;;30.77;17.33;;;;;;;-7.10;100.00;97494.56;5133182;27;20205;-83
2022/12/13 02:33:01;;;;;;;32.90;17.17;;;;;;;-7.01;100.00;97495.31;5049818;28;20765;-82
2022/12/13 02:35:37;;;;;;;29.97;16.83;;;;;;;-7.06;100.00;97497.09;5115051;27;20276;-82
2022/12/13 02:38:11;;;;;;;33.03;17.80;;;;;;;-7.12;100.00;97489.44;5133372;27;20205;-83
2022/12/13 02:40:41;;;;;;;33.80;17.50;;;;;;;-7.10;100.00;97492.84;5133155;27;20223;-82
2022/12/13 02:43:14;;;;;;;31.10;16.83;;;;;;;-7.11;100.00;97488.56;5133159;27;20233;-82
2022/12/13 02:45:45;;;;;;;28.60;16.10;;;;;;;-7.10;100.00;97486.88;5133252;27;20220;-83
2022/12/13 02:48:18;;;;;;;32.37;16.43;;;;;;;-7.14;100.00;97487.75;5133041;27;20525;-83
2022/12/13 02:50:46;;;;;;;30.00;17.13;;;;;;;-7.13;100.00;97492.88;5142623;27;20193;-83
2022/12/13 02:53:15;;;;;;;31.43;18.40;;;;;;;-7.13;100.00;97494.59;5159198;27;20272;-83
2022/12/13 02:55:42;;;;;;;34.20;17.27;;;;;;;-7.16;100.00;97487.78;5159128;27;20193;-83
2022/12/13 02:58:12;;;;;;;31.67;17.07;;;;;;;-7.14;100.00;97480.06;5155139;27;20215;-82
2022/12/13 03:00:48;;;;;;;31.97;17.30;;;;;;;-7.16;100.00;97487.78;5158969;27;20219;-82
2022/12/13 03:03:26;;;;;;;35.30;17.10;;;;;;;-7.20;100.00;97493.81;5157648;27;20209;-82
2022/12/13 03:08:56;;;;;;;30.20;16.33;;;;;;;-7.18;100.00;97484.38;5158898;27;20249;-83
2022/12/13 03:11:25;;;;;;;34.40;18.60;;;;;;;-7.20;100.00;97481.00;5150005;27;20296;-82
2022/12/13 03:13:53;;;;;;;32.57;17.50;;;;;;;-7.25;100.00;97482.75;5133455;27;20233;-83
2022/12/13 03:16:27;;;;;;;35.47;17.13;;;;;;;-7.29;100.00;97475.94;5133494;27;20197;-83
2022/12/13 03:18:58;;;;;;;33.17;17.50;;;;;;;-7.34;100.00;97472.56;5133575;27;20211;-83
2022/12/13 03:21:25;;;;;;;30.80;16.43;;;;;;;-7.37;100.00;97462.34;5133877;27;20209;-83
2022/12/13 03:23:52;;;;;;;29.83;16.47;;;;;;;-7.37;100.00;97470.03;5133686;27;20225;-83
2022/12/13 03:26:21;;;;;;;31.00;16.53;;;;;;;-7.38;100.00;97460.66;5132442;27;20579;-82
2022/12/13 03:28:48;;;;;;;29.83;15.60;;;;;;;-7.45;100.00;97456.44;5132443;27;20574;-83
2022/12/13 03:31:14;;;;;;;31.57;16.40;;;;;;;-7.47;100.00;97454.75;5132676;27;20201;-83
2022/12/13 03:33:41;;;;;;;27.30;15.43;;;;;;;-7.46;100.00;97451.31;5132433;27;20229;-83
2022/12/13 03:36:10;;;;;;;28.37;15.47;;;;;;;-7.49;100.00;97447.06;5132374;27;20201;-83
2022/12/13 03:38:38;;;;;;;31.60;15.77;;;;;;;-7.51;100.00;97453.06;5132115;27;20213;-83
2022/12/13 03:41:08;;;;;;;31.03;16.37;;;;;;;-7.52;100.00;97452.25;5132062;27;20205;-83
2022/12/13 03:43:35;;;;;;;35.13;17.27;;;;;;;-7.54;100.00;97455.69;5132261;27;20222;-82
2022/12/13 03:46:02;;;;;;;34.90;18.10;;;;;;;-7.52;100.00;97457.38;5131989;27;20205;-83
2022/12/13 03:48:28;;;;;;;38.47;18.63;;;;;;;-7.51;100.00;97448.81;5132184;28;20550;-83
2022/12/13 03:50:55;;;;;;;34.30;16.63;;;;;;;-7.49;100.00;97451.34;5132245;28;20205;-83
2022/12/13 03:53:24;;;;;;;29.87;16.37;;;;;;;-7.50;100.00;97450.50;5132200;28;20225;-83
2022/12/13 03:55:50;;;;;;;30.90;16.27;;;;;;;-7.52;100.00;97456.50;5131988;28;20205;-83
2022/12/13 03:58:17;;;;;;;31.27;15.80;;;;;;;-7.52;100.00;97449.69;5132169;28;20604;-83
2022/12/13 04:00:44;;;;;;;35.00;17.63;;;;;;;-7.50;100.00;97449.66;5134070;27;20209;-83
2022/12/13 04:03:11;;;;;;;32.87;17.47;;;;;;;-7.36;100.00;97453.78;5136323;27;20220;-83
2022/12/13 04:05:37;;;;;;;39.20;17.80;;;;;;;-7.33;100.00;97448.63;5136296;27;20201;-83
2022/12/13 04:08:04;;;;;;;32.57;17.73;;;;;;;-7.30;100.00;97451.13;5136089;27;20225;-82
2022/12/13 04:10:34;;;;;;;31.77;15.13;;;;;;;-7.38;100.00;97445.25;5135717;27;20566;-83
2022/12/13 04:15:47;;;;;;;35.50;17.37;;;;;;;-7.41;100.00;97442.69;5136147;27;20205;-82
2022/12/13 04:18:14;;;;;;;30.00;16.40;;;;;;;-7.40;100.00;97441.84;5136013;27;20205;-83
2022/12/13 04:20:41;;;;;;;28.27;15.87;;;;;;;-7.46;100.00;97443.63;5135642;27;20215;-83
2022/12/13 04:23:07;;;;;;;32.87;16.17;;;;;;;-7.49;100.00;97441.94;5136018;27;20229;-83
2022/12/13 04:25:35;;;;;;;29.63;16.50;;;;;;;-7.55;100.00;97434.31;5136057;27;20205;-82
2022/12/13 04:28:02;;;;;;;26.57;16.10;;;;;;;-7.57;100.00;97443.75;5135879;27;20602;-83
2022/12/13 04:30:28;;;;;;;29.27;15.17;;;;;;;-7.64;100.00;97439.53;5135519;27;20591;-82
2022/12/13 04:32:55;;;;;;;31.70;16.57;;;;;;;-7.68;100.00;97437.84;5135723;27;20225;-83
2022/12/13 04:35:22;;;;;;;31.47;16.87;;;;;;;-7.59;100.00;97442.06;5135705;27;20233;-83
2022/12/13 04:37:48;;;;;;;31.57;16.80;;;;;;;-7.57;100.00;97441.19;5135951;27;20202;-83
2022/12/13 04:40:15;;;;;;;31.17;16.27;;;;;;;-7.54;100.00;97441.13;5135529;27;20201;-83
2022/12/13 04:42:43;;;;;;;31.07;15.47;;;;;;;-7.57;100.00;97436.03;5135682;27;20231;-83
2022/12/13 04:45:15;;;;;;;28.60;15.03;;;;;;;-7.60;100.00;97433.50;5135629;27;20216;-83
2022/12/13 04:47:42;;;;;;;27.87;15.77;;;;;;;-7.59;100.00;97434.34;5136147;27;20225;-83
2022/12/13 04:50:09;;;;;;;30.10;15.67;;;;;;;-7.62;100.00;97435.22;5135142;27;20220;-83
2022/12/13 04:52:36;;;;;;;32.50;16.00;;;;;;;-7.61;100.00;97436.94;5135498;27;20209;-83
2022/12/13 04:55:03;;;;;;;29.97;16.50;;;;;;;-7.60;100.00;97432.66;5135586;27;20690;-83
2022/12/13 04:57:29;;;;;;;30.07;14.93;;;;;;;-7.64;100.00;97429.28;5135488;27;20228;-83
2022/12/13 04:59:58;;;;;;;25.47;14.50;;;;;;;-7.64;100.00;97433.53;5135149;27;20202;-83
2022/12/13 05:02:24;;;;;;;23.60;13.77;;;;;;;-7.63;100.00;97433.53;5135213;27;20246;-83
2022/12/13 05:04:51;;;;;;;29.53;15.10;;;;;;;-7.62;100.00;97430.09;5135106;27;20713;-83
2022/12/13 05:07:18;;;;;;;36.50;17.67;;;;;;;-7.60;100.00;97428.34;5135340;27;20270;-83
2022/12/13 05:09:44;;;;;;;35.73;16.77;;;;;;;-7.60;100.00;97427.53;5134994;27;20209;-83
2022/12/13 05:12:11;;;;;;;27.03;15.13;;;;;;;-7.63;100.00;97430.97;5134456;27;20214;-83
2022/12/13 05:14:37;;;;;;;31.50;16.23;;;;;;;-7.64;100.00;97428.41;5136319;22;20267;-81
2022/12/13 05:17:05;;;;;;;32.67;17.00;;;;;;;-7.62;100.00;97429.25;5114272;28;20203;-83
2022/12/13 05:19:31;;;;;;;30.63;16.57;;;;;;;-7.68;100.00;97431.88;5114222;28;20210;-82
2022/12/13 05:21:59;;;;;;;30.37;14.87;;;;;;;-7.73;100.00;97433.66;5114313;28;20275;-82
2022/12/13 05:24:25;;;;;;;27.83;15.03;;;;;;;-7.79;100.00;97426.84;5114059;28;20227;-82
2022/12/13 05:26:52;;;;;;;28.47;15.07;;;;;;;-7.75;100.00;97427.66;5114108;28;20229;-82
2022/12/13 05:29:18;;;;;;;30.03;16.40;;;;;;;-7.81;100.00;97420.88;5113949;28;20209;-82
2022/12/13 05:31:45;;;;;;;32.33;15.83;;;;;;;-7.82;100.00;97426.88;5114089;28;20202;-82
2022/12/13 05:34:14;;;;;;;36.07;17.83;;;;;;;-7.71;100.00;97419.91;5113926;28;20740;-82
2022/12/13 05:36:40;;;;;;;31.57;17.23;;;;;;;-7.70;100.00;97413.94;5114001;28;20232;-83
2022/12/13 05:39:07;;;;;;;29.90;15.97;;;;;;;-7.66;100.00;97423.28;5113557;28;20216;-82
2022/12/13 05:41:36;;;;;;;33.97;16.97;;;;;;;-7.65;100.00;97424.16;5113869;28;20210;-82
2022/12/13 05:44:03;;;;;;;28.93;16.30;;;;;;;-7.60;100.00;97418.09;5113684;28;20302;-83
2022/12/13 05:46:29;;;;;;;27.60;15.10;;;;;;;-7.69;100.00;97418.22;5113849;28;20206;-83
2022/12/13 05:48:56;;;;;;;30.70;16.07;;;;;;;-7.72;100.00;97419.94;5113737;28;20212;-82
2022/12/13 05:51:24;;;;;;;30.83;15.73;;;;;;;-7.69;100.00;97423.34;5113765;28;20562;-83
2022/12/13 05:53:50;;;;;;;31.40;15.93;;;;;;;-7.70;100.00;97411.38;5113886;28;20226;-83
2022/12/13 05:56:17;;;;;;;27.90;15.17;;;;;;;-7.73;100.00;97421.66;5113754;28;20295;-83
2022/12/13 05:58:43;;;;;;;30.77;15.90;;;;;;;-7.75;100.00;97413.13;5113931;28;20210;-83
2022/12/13 06:01:13;;;;;;;31.83;16.30;;;;;;;-7.68;100.00;97409.63;5114481;28;20202;-82
2022/12/13 06:03:40;;;;;;;32.80;17.53;;;;;;;-7.55;100.00;97411.22;5114893;28;20233;-83
2022/12/13 06:06:12;;;;;;;32.10;16.47;;;;;;;-7.57;100.00;97412.09;5114558;28;20878;-83
2022/12/13 06:08:40;;;;;;;32.60;16.60;;;;;;;-7.57;100.00;97402.69;5114291;28;20225;-83
2022/12/13 06:11:07;;;;;;;34.17;17.73;;;;;;;-7.53;100.00;97414.59;5114175;28;20225;-83
2022/12/13 06:13:34;;;;;;;28.73;16.07;;;;;;;-7.55;100.00;97408.66;5114954;28;20245;-83
2022/12/13 06:16:02;;;;;;;33.97;17.07;;;;;;;-7.56;100.00;97409.53;5114403;28;20555;-82
2022/12/13 06:18:30;;;;;;;26.80;14.93;;;;;;;-7.52;100.00;97415.47;5114858;28;20213;-82
2022/12/13 06:20:58;;;;;;;31.07;17.13;;;;;;;-7.45;100.00;97410.25;5115102;28;20602;-82
2022/12/13 06:23:27;;;;;;;29.00;17.57;;;;;;;-7.39;100.00;97412.75;5114120;28;20222;-83
2022/12/13 06:25:55;;;;;;;32.60;17.40;;;;;;;-7.42;100.00;97423.03;5115041;28;20210;-82
2022/12/13 06:28:22;;;;;;;33.00;17.23;;;;;;;-7.38;100.00;97423.84;5115598;28;20626;-83
2022/12/13 06:30:51;;;;;;;32.20;15.87;;;;;;;-7.52;100.00;97416.31;5114662;28;20213;-82
2022/12/13 06:33:18;;;;;;;36.43;17.93;;;;;;;-7.55;100.00;97411.22;5114340;28;20791;-83
2022/12/13 06:35:44;;;;;;;31.57;16.63;;;;;;;-7.60;100.00;97412.97;5114625;28;20201;-82
2022/12/13 06:38:11;;;;;;;32.00;16.00;;;;;;;-7.65;100.00;97403.63;5114825;28;20209;-82
2022/12/13 06:40:37;;;;;;;31.10;16.67;;;;;;;-7.59;100.00;97411.28;5113223;28;20212;-82
2022/12/13 06:43:06;;;;;;;33.97;16.03;;;;;;;-7.59;100.00;97416.41;5113374;28;20230;-82
2022/12/13 06:45:32;;;;;;;25.70;13.37;;;;;;;-7.67;100.00;97415.63;5113596;28;20209;-82
2022/12/13 06:47:59;;;;;;;33.00;15.33;;;;;;;-7.68;100.00;97404.50;5113253;28;20704;-82
2022/12/13 06:50:25;;;;;;;27.77;14.20;;;;;;;-7.72;100.00;97410.53;5113187;28;20208;-82
2022/12/13 06:52:52;;;;;;;27.80;15.10;;;;;;;-7.62;100.00;97416.41;5112657;28;20217;-82
2022/12/13 06:55:19;;;;;;;37.60;17.47;;;;;;;-7.39;100.00;97427.28;5113392;28;20669;-82
2022/12/13 06:57:45;;;;;;;33.83;16.17;;;;;;;-7.41;100.00;97429.88;5113231;28;20233;-83
2022/12/13 07:00:14;;;;;;;30.33;16.37;;;;;;;-7.34;100.00;97420.41;5113208;28;20206;-82
2022/12/13 07:02:41;;;;;;;28.37;15.87;;;;;;;-7.37;100.00;97416.16;5113404;28;20205;-82
2022/12/13 07:05:09;;;;;;;27.93;15.93;;;;;;;-7.34;100.00;97425.53;5113000;28;20333;-81
2022/12/13 07:07:35;;;;;;;32.47;17.47;;;;;;;-7.28;100.00;97426.28;5112875;28;20230;-82
2022/12/13 07:10:02;;;;;;;26.37;14.60;;;;;;;-7.34;100.00;97434.06;5112408;28;20217;-82
2022/12/13 07:12:28;;;;;;;30.63;15.93;;;;;;;-7.33;100.00;97420.41;5113218;28;20213;-82
2022/12/13 07:14:55;;;;;;;27.60;15.73;;;;;;;-7.35;100.00;97429.81;5113331;28;20238;-82
2022/12/13 07:17:22;;;;;;;30.60;15.97;;;;;;;-7.37;100.00;97425.56;5113845;28;20297;-82
2022/12/13 07:19:49;;;;;;;32.47;16.23;;;;;;;-7.41;100.00;97426.47;5112511;28;20210;-81
2022/12/13 07:22:16;;;;;;;37.10;16.73;;;;;;;-7.40;100.00;97426.47;5112755;28;20209;-82
2022/12/13 07:24:42;;;;;;;33.30;16.67;;;;;;;-7.40;100.00;97436.72;5112418;28;20654;-82
2022/12/13 07:27:09;;;;;;;31.00;15.30;;;;;;;-7.39;100.00;97422.16;5113044;28;20206;-81
2022/12/13 07:29:35;;;;;;;30.70;16.60;;;;;;;-7.37;100.00;97426.41;5112192;28;20205;-81
2022/12/13 07:32:02;;;;;;;26.07;14.73;;;;;;;-7.38;100.00;97423.84;5112849;28;20214;-81
2022/12/13 07:34:30;;;;;;;31.00;17.20;;;;;;;-7.37;100.00;97428.97;5112964;28;20222;-81
2022/12/13 07:36:56;;;;;;;29.13;15.63;;;;;;;-7.37;100.00;97436.69;5113254;28;20217;-81
2022/12/13 07:39:24;;;;;;;25.27;14.57;;;;;;;-7.35;100.00;97444.38;5112811;28;20206;-81
2022/12/13 07:41:53;;;;;;;32.63;15.07;;;;;;;-7.28;100.00;97440.88;5113061;28;20205;-83
2022/12/13 07:44:20;;;;;;;30.57;16.73;;;;;;;-7.23;100.00;97439.94;5113099;28;20222;-82
2022/12/13 07:46:46;;;;;;;28.33;15.93;;;;;;;-7.17;100.00;97434.72;5113155;28;20212;-82
2022/12/13 07:49:13;;;;;;;34.53;16.10;;;;;;;-7.13;100.00;97449.25;5111966;28;20732;-81
2022/12/13 07:51:40;;;;;;;29.03;16.33;;;;;;;-7.06;100.00;97450.88;5112129;28;20210;-82
2022/12/13 07:54:07;;;;;;;28.37;15.30;;;;;;;-7.06;100.00;97458.56;5112652;28;20237;-81
2022/12/13 07:56:34;;;;;;;30.43;16.30;;;;;;;-7.11;100.00;97455.19;5112664;28;20255;-81
2022/12/13 07:59:00;;;;;;;29.73;15.40;;;;;;;-7.03;100.00;97461.94;5111830;28;20209;-82
2022/12/13 08:01:27;;;;;;;30.43;15.80;;;;;;;-6.97;100.00;97468.75;5112051;28;20208;-81
2022/12/13 08:03:55;;;;;;;28.03;15.67;;;;;;;-6.90;100.00;97457.53;5112046;28;20234;-81
2022/12/13 08:06:21;;;;;;;26.63;15.70;;;;;;;-6.97;100.00;97463.63;5112692;28;20209;-81
2022/12/13 08:08:50;;;;;;;29.97;14.47;;;;;;;-6.97;100.00;97461.03;5111365;28;20234;-82
2022/12/13 08:11:17;;;;;;;28.37;15.60;;;;;;;-6.93;100.00;97460.13;5111426;28;20243;-81
2022/12/13 08:13:43;;;;;;;32.30;16.33;;;;;;;-6.89;100.00;97464.38;5111182;28;20238;-81
2022/12/13 08:16:13;;;;;;;32.27;16.10;;;;;;;-6.92;100.00;97451.53;5111301;28;20202;-81
2022/12/13 08:18:40;;;;;;;32.13;16.30;;;;;;;-6.89;100.00;97461.78;5111302;28;20684;-81
2022/12/13 08:21:08;;;;;;;32.67;16.20;;;;;;;-6.85;100.00;97453.19;5111071;28;20666;-81
2022/12/13 08:23:35;;;;;;;28.60;15.53;;;;;;;-6.87;100.00;97467.75;5111885;28;20222;-83
2022/12/13 08:26:04;;;;;;;31.33;16.53;;;;;;;-6.82;100.00;97464.28;5111469;28;20198;-81
2022/12/13 08:28:32;;;;;;;29.07;16.23;;;;;;;-6.82;100.00;97460.84;5111265;28;20233;-81
2022/12/13 08:31:03;;;;;;;27.63;14.47;;;;;;;-6.73;100.00;97455.59;5111066;28;20228;-81
2022/12/13 08:33:30;;;;;;;27.00;14.57;;;;;;;-6.71;100.00;97451.28;5111486;28;20288;-81
2022/12/13 08:35:57;;;;;;;30.20;15.30;;;;;;;-6.73;100.00;97460.75;5111285;28;20206;-80
2022/12/13 08:38:24;;;;;;;27.10;15.47;;;;;;;-6.67;100.00;97458.06;5111396;28;20678;-79
2022/12/13 08:40:50;;;;;;;29.03;15.80;;;;;;;-6.66;100.00;97454.66;5111062;28;20202;-80
2022/12/13 08:43:18;;;;;;;30.47;15.23;;;;;;;-6.64;100.00;97458.03;5111052;28;20253;-80
2022/12/13 08:45:45;;;;;;;26.90;13.80;;;;;;;-6.67;100.00;97458.94;5111507;28;20220;-79
2022/12/13 08:48:11;;;;;;;26.37;14.50;;;;;;;-6.63;100.00;97464.88;5114989;28;20237;-79
2022/12/13 08:50:38;;;;;;;29.07;16.03;;;;;;;-6.62;100.00;97466.56;5114147;28;20206;-80
2022/12/13 08:53:04;;;;;;;29.73;15.20;;;;;;;-6.57;100.00;97480.22;5114807;28;20226;-79
2022/12/13 08:55:31;;;;;;;28.57;16.43;;;;;;;-6.40;100.00;97475.72;5114962;28;20233;-79
2022/12/13 08:57:57;;;;;;;29.20;16.47;;;;;;;-6.36;100.00;97464.53;5114820;28;20198;-79
2022/12/13 09:00:25;;;;;;;32.23;15.77;;;;;;;-6.27;100.00;97465.25;5114740;28;20213;-79
2022/12/13 09:02:52;;;;;;;25.63;15.20;;;;;;;-6.17;100.00;97460.81;5115015;28;20425;-80
2022/12/13 09:05:19;;;;;;;31.47;16.40;;;;;;;-6.06;100.00;97464.03;5115232;28;20235;-81
2022/12/13 09:07:45;;;;;;;26.47;14.20;;;;;;;-6.06;100.00;97461.47;5114677;28;20233;-81
2022/12/13 09:10:12;;;;;;;30.27;16.80;;;;;;;-5.95;100.00;97463.03;5114460;28;20571;-80
2022/12/13 09:12:41;;;;;;;31.17;15.50;;;;;;;-5.93;100.00;97463.00;5114515;28;20218;-79
2022/12/13 09:15:09;;;;;;;28.27;15.53;;;;;;;-5.83;100.00;97456.81;5114617;28;20245;-82
2022/12/13 09:17:37;;;;;;;31.23;16.47;;;;;;;-5.80;100.00;97457.63;5114674;28;20210;-80
2022/12/13 09:20:05;;;;;;;31.43;15.80;;;;;;;-5.75;100.00;97452.38;5114624;28;20210;-80
2022/12/13 09:22:32;;;;;;;28.97;15.67;;;;;;;-5.67;100.00;97453.09;5114307;28;20682;-81
2022/12/13 09:24:58;;;;;;;27.50;16.20;;;;;;;-5.58;100.00;97452.94;5114072;28;20226;-81
2022/12/13 09:27:25;;;;;;;26.47;15.57;;;;;;;-5.48;100.00;97449.34;5114355;28;20206;-81
2022/12/13 09:29:52;;;;;;;29.10;16.27;;;;;;;-5.45;100.00;97444.16;5114109;28;20228;-80
2022/12/13 09:32:18;;;;;;;29.80;16.20;;;;;;;-5.39;100.00;97446.56;5114271;28;20210;-81
2022/12/13 09:34:47;;;;;;;29.73;16.37;;;;;;;-5.33;100.00;97449.03;5114095;28;20230;-80
2022/12/13 09:37:13;;;;;;;25.73;15.00;;;;;;;-5.29;100.00;97450.69;5114149;28;20213;-81
2022/12/13 09:39:40;;;;;;;25.83;14.37;;;;;;;-5.26;100.00;97441.19;5113769;28;20549;-81
2022/12/13 09:42:16;;;;;;;25.63;15.53;;;;;;;-5.22;100.00;97447.13;5114087;28;20214;-81
2022/12/13 09:44:51;;;;;;;27.73;15.23;;;;;;;-5.11;100.00;97455.50;5114237;28;20260;-81
2022/12/13 09:47:28;;;;;;;24.13;13.73;;;;;;;-5.13;100.00;97452.13;5114012;28;20201;-80
2022/12/13 09:49:56;;;;;;;28.10;14.47;;;;;;;-5.13;100.00;97454.69;5113441;28;20233;-81
2022/12/13 09:52:25;;;;;;;25.33;14.87;;;;;;;-5.13;100.00;97447.81;5113957;28;20219;-81
2022/12/13 09:54:55;;;;;;;27.00;15.03;;;;;;;-5.07;100.00;97439.94;5113993;28;20319;-81
2022/12/13 09:57:25;;;;;;;24.80;14.60;;;;;;;-5.07;100.00;97436.53;5113656;28;20324;-81
2022/12/13 09:59:52;;;;;;;31.43;15.73;;;;;;;-4.95;100.00;97436.31;5113315;28;20213;-81
2022/12/13 10:02:23;;;;;;;27.33;14.57;;;;;;;-5.00;100.00;97430.41;5113533;28;20631;-80
2022/12/13 10:04:51;;;;;;;27.47;15.70;;;;;;;-4.95;100.00;97428.59;5113711;28;20226;-81
2022/12/13 10:07:20;;;;;;;25.13;14.10;;;;;;;-4.81;100.00;97435.16;5114005;28;20207;-81
2022/12/13 10:09:48;;;;;;;26.40;13.90;;;;;;;-4.81;100.00;97434.28;5113552;28;20231;-81
2022/12/13 10:12:16;;;;;;;23.43;13.70;;;;;;;-4.75;100.00;97431.59;5113510;28;20207;-82
2022/12/13 10:14:50;;;;;;;22.90;14.13;;;;;;;-4.71;100.00;97425.50;5113350;28;20247;-82
2022/12/13 10:17:20;;;;;;;25.10;12.67;;;;;;;-4.67;100.00;97417.66;5113527;28;20212;-82
2022/12/13 10:19:50;;;;;;;21.90;12.30;;;;;;;-4.66;100.00;97411.63;5111460;28;20205;-83
2022/12/13 10:22:21;;;;;;;26.97;13.83;;;;;;;-4.66;100.00;97418.50;5111634;28;20332;-83
2022/12/13 10:24:51;;;;;;;24.93;13.03;;;;;;;-4.62;100.00;97412.41;5112222;28;20226;-82
2022/12/13 10:27:20;;;;;;;25.80;13.67;;;;;;;-4.57;100.00;97403.72;5110311;28;20202;-83
2022/12/13 10:30:05;;;;;;;24.30;13.27;;;;;;;-4.58;100.00;97396.00;5100480;28;20227;-87
2022/12/13 10:32:34;;;;;;;25.23;13.07;;;;;;;-4.60;100.00;97397.75;5110728;28;20211;-87
2022/12/13 10:35:11;;;;;;;25.53;14.23;;;;;;;-4.59;100.00;97392.56;5112303;28;20275;-82
2022/12/13 10:37:39;;;;;;;20.77;12.07;;;;;;;-4.56;100.00;97389.06;5112282;28;20207;-82
2022/12/13 10:40:24;;;;;;;19.83;11.80;;;;;;;-4.54;100.00;97384.72;5112492;28;20226;-84
2022/12/13 10:43:07;;;;;;;22.43;13.00;;;;;;;-4.53;100.00;97384.69;5112021;28;20202;-81
2022/12/13 10:45:33;;;;;;;23.30;12.80;;;;;;;-4.49;100.00;97381.19;5112098;28;20280;-79
2022/12/13 10:48:00;;;;;;;22.43;13.33;;;;;;;-4.42;100.00;97376.72;5112100;28;20221;-83
2022/12/13 10:50:29;;;;;;;20.80;12.10;;;;;;;-4.47;100.00;97368.25;5108443;28;20217;-83
2022/12/13 10:52:58;;;;;;;22.87;13.03;;;;;;;-4.47;100.00;97378.56;5111419;28;20696;-82
2022/12/13 10:55:30;;;;;;;22.60;13.10;;;;;;;-4.37;100.00;97380.03;5111338;28;20217;-84
2022/12/13 10:58:00;;;;;;;22.83;14.43;;;;;;;-4.34;100.00;97379.97;5112049;28;20427;-86
2022/12/13 11:00:37;;;;;;;22.90;13.63;;;;;;;-4.26;100.00;97373.78;5112299;28;20208;-86
2022/12/13 11:03:04;;;;;;;23.37;12.87;;;;;;;-4.25;100.00;97369.44;5112458;28;20241;-85
2022/12/13 11:05:34;;;;;;;20.47;12.17;;;;;;;-4.32;100.00;97367.88;5112309;28;20228;-85
2022/12/13 11:08:20;;;;;;;24.93;13.20;;;;;;;-4.28;100.00;97374.69;5112143;28;20213;-86
2022/12/13 11:10:56;;;;;;;22.73;15.05;;;;;;;-4.23;100.00;97367.69;5110860;28;20922;-86
2022/12/13 11:13:31;;;;;;;23.30;13.40;;;;;;;-4.21;100.00;97374.47;5129797;22;20614;-88
2022/12/13 11:15:57;;;;;;;22.20;13.33;;;;;;;-4.09;100.00;97365.63;5070566;28;20210;-83
2022/12/13 11:18:26;;;;;;;18.67;12.30;;;;;;;-4.01;100.00;97361.09;5071321;28;20200;-81
2022/12/13 11:20:57;;;;;;;18.90;11.60;;;;;;;-3.96;100.00;97351.53;5070862;28;20657;-85
2022/12/13 11:23:29;;;;;;;20.13;11.60;;;;;;;-3.94;100.00;97354.91;5071236;28;20213;-84